sensor_id;sensor_type;location;lat;lon;timestamp;temperature;humidity
38456;DHT22;24237;50.106;20.014;2024-03-08T00:02:14;4.70;99.90
38456;DHT22;24237;50.106;20.014;2024-03-08T00:04:40;4.60;1.00
38456;DHT22;24237;50.106;20.014;2024-03-08T00:07:05;4.80;99.90
38456;DHT22;24237;50.106;20.014;2024-03-08T00:09:32;5.00;99.90
38456;DHT22;24237;50.106;20.014;2024-03-08T00:11:58;4.90;87.50
38456;DHT22;24237;50.106;20.014;2024-03-08T00:14:24;5.00;71.90
38456;DHT22;24237;50.106;20.014;2024-03-08T00:16:49;5.10;63.40
38456;DHT22;24237;50.106;20.014;2024-03-08T00:19:15;5.20;1.00
38456;DHT22;24237;50.106;20.014;2024-03-08T00:21:40;5.20;1.00
38456;DHT22;24237;50.106;20.014;2024-03-08T00:24:07;4.90;8.20
38456;DHT22;24237;50.106;20.014;2024-03-08T00:26:33;4.90;40.90
38456;DHT22;24237;50.106;20.014;2024-03-08T00:28:59;4.90;99.90
38456;DHT22;24237;50.106;20.014;2024-03-08T00:31:24;4.90;1.00
38456;DHT22;24237;50.106;20.014;2024-03-08T00:33:50;5.00;1.00
38456;DHT22;24237;50.106;20.014;2024-03-08T00:36:16;4.90;1.00
38456;DHT22;24237;50.106;20.014;2024-03-08T00:38:42;4.90;1.00
38456;DHT22;24237;50.106;20.014;2024-03-08T00:41:08;4.80;4.30
38456;DHT22;24237;50.106;20.014;2024-03-08T00:43:33;5.00;1.00
38456;DHT22;24237;50.106;20.014;2024-03-08T00:45:59;5.00;1.00
38456;DHT22;24237;50.106;20.014;2024-03-08T00:48:26;5.00;1.00
38456;DHT22;24237;50.106;20.014;2024-03-08T00:50:52;4.90;1.00
38456;DHT22;24237;50.106;20.014;2024-03-08T00:53:18;4.90;7.00
38456;DHT22;24237;50.106;20.014;2024-03-08T00:55:43;5.10;1.00
38456;DHT22;24237;50.106;20.014;2024-03-08T00:58:12;5.30;1.00
38456;DHT22;24237;50.106;20.014;2024-03-08T01:00:37;5.10;1.00
38456;DHT22;24237;50.106;20.014;2024-03-08T01:03:04;5.20;1.00
38456;DHT22;24237;50.106;20.014;2024-03-08T01:05:30;5.30;1.00
38456;DHT22;24237;50.106;20.014;2024-03-08T01:07:56;5.20;1.00
38456;DHT22;24237;50.106;20.014;2024-03-08T01:10:21;5.20;1.00
38456;DHT22;24237;50.106;20.014;2024-03-08T01:12:48;4.90;1.00
38456;DHT22;24237;50.106;20.014;2024-03-08T01:15:15;4.90;1.00
38456;DHT22;24237;50.106;20.014;2024-03-08T01:17:41;4.80;1.00
38456;DHT22;24237;50.106;20.014;2024-03-08T01:20:07;4.90;1.00
38456;DHT22;24237;50.106;20.014;2024-03-08T01:22:36;4.90;1.00
38456;DHT22;24237;50.106;20.014;2024-03-08T01:25:01;4.80;1.00
38456;DHT22;24237;50.106;20.014;2024-03-08T01:27:30;5.10;1.00
38456;DHT22;24237;50.106;20.014;2024-03-08T01:29:55;5.20;1.00
38456;DHT22;24237;50.106;20.014;2024-03-08T01:32:21;5.10;99.90
38456;DHT22;24237;50.106;20.014;2024-03-08T01:34:49;4.80;99.90
38456;DHT22;24237;50.106;20.014;2024-03-08T01:37:14;4.90;99.90
38456;DHT22;24237;50.106;20.014;2024-03-08T01:39:40;4.80;1.00
38456;DHT22;24237;50.106;20.014;2024-03-08T01:42:05;4.90;1.00
38456;DHT22;24237;50.106;20.014;2024-03-08T01:44:31;4.80;99.90
38456;DHT22;24237;50.106;20.014;2024-03-08T01:46:57;4.70;1.00
38456;DHT22;24237;50.106;20.014;2024-03-08T01:49:24;4.80;1.00
38456;DHT22;24237;50.106;20.014;2024-03-08T01:51:51;4.80;1.00
38456;DHT22;24237;50.106;20.014;2024-03-08T01:54:18;4.80;1.00
38456;DHT22;24237;50.106;20.014;2024-03-08T01:56:45;4.80;1.00
38456;DHT22;24237;50.106;20.014;2024-03-08T01:59:12;4.80;1.00
38456;DHT22;24237;50.106;20.014;2024-03-08T02:01:40;4.90;1.00
38456;DHT22;24237;50.106;20.014;2024-03-08T02:04:05;4.80;1.00
38456;DHT22;24237;50.106;20.014;2024-03-08T02:06:32;4.90;99.90
38456;DHT22;24237;50.106;20.014;2024-03-08T02:08:58;4.70;99.90
38456;DHT22;24237;50.106;20.014;2024-03-08T02:11:24;4.80;99.90
38456;DHT22;24237;50.106;20.014;2024-03-08T02:13:50;4.60;1.00
38456;DHT22;24237;50.106;20.014;2024-03-08T02:16:21;4.40;1.00
38456;DHT22;24237;50.106;20.014;2024-03-08T02:18:47;4.50;1.00
38456;DHT22;24237;50.106;20.014;2024-03-08T02:21:12;4.60;1.00
38456;DHT22;24237;50.106;20.014;2024-03-08T02:23:39;4.60;1.00
38456;DHT22;24237;50.106;20.014;2024-03-08T02:26:05;4.60;1.00
38456;DHT22;24237;50.106;20.014;2024-03-08T02:28:33;4.70;1.00
38456;DHT22;24237;50.106;20.014;2024-03-08T02:30:59;4.60;1.00
38456;DHT22;24237;50.106;20.014;2024-03-08T02:33:27;4.60;1.00
38456;DHT22;24237;50.106;20.014;2024-03-08T02:35:53;4.80;1.00
38456;DHT22;24237;50.106;20.014;2024-03-08T02:38:21;4.60;1.00
38456;DHT22;24237;50.106;20.014;2024-03-08T02:40:48;5.00;1.00
38456;DHT22;24237;50.106;20.014;2024-03-08T02:43:15;4.80;99.90
38456;DHT22;24237;50.106;20.014;2024-03-08T02:45:41;4.90;1.00
38456;DHT22;24237;50.106;20.014;2024-03-08T02:48:11;4.60;1.00
38456;DHT22;24237;50.106;20.014;2024-03-08T02:50:37;4.80;1.00
38456;DHT22;24237;50.106;20.014;2024-03-08T02:53:03;4.80;99.90
38456;DHT22;24237;50.106;20.014;2024-03-08T02:55:29;4.80;99.90
38456;DHT22;24237;50.106;20.014;2024-03-08T02:57:55;4.50;99.90
38456;DHT22;24237;50.106;20.014;2024-03-08T03:00:22;4.60;99.90
38456;DHT22;24237;50.106;20.014;2024-03-08T03:02:52;4.50;1.00
38456;DHT22;24237;50.106;20.014;2024-03-08T03:05:21;4.40;1.00
38456;DHT22;24237;50.106;20.014;2024-03-08T03:07:46;4.60;1.00
38456;DHT22;24237;50.106;20.014;2024-03-08T03:10:14;4.60;1.00
38456;DHT22;24237;50.106;20.014;2024-03-08T03:12:42;4.50;1.00
38456;DHT22;24237;50.106;20.014;2024-03-08T03:15:08;4.50;1.00
38456;DHT22;24237;50.106;20.014;2024-03-08T03:17:34;4.50;1.00
38456;DHT22;24237;50.106;20.014;2024-03-08T03:19:59;4.40;1.00
38456;DHT22;24237;50.106;20.014;2024-03-08T03:22:30;4.50;1.00
38456;DHT22;24237;50.106;20.014;2024-03-08T03:24:56;4.60;1.00
38456;DHT22;24237;50.106;20.014;2024-03-08T03:27:23;4.60;1.00
38456;DHT22;24237;50.106;20.014;2024-03-08T03:29:50;4.40;1.00
38456;DHT22;24237;50.106;20.014;2024-03-08T03:32:17;4.60;1.00
38456;DHT22;24237;50.106;20.014;2024-03-08T03:34:44;4.60;1.00
38456;DHT22;24237;50.106;20.014;2024-03-08T03:37:10;4.80;1.00
38456;DHT22;24237;50.106;20.014;2024-03-08T03:39:39;4.60;1.00
38456;DHT22;24237;50.106;20.014;2024-03-08T03:42:18;4.60;1.00
38456;DHT22;24237;50.106;20.014;2024-03-08T03:44:47;4.40;1.00
38456;DHT22;24237;50.106;20.014;2024-03-08T03:47:14;4.60;1.00
38456;DHT22;24237;50.106;20.014;2024-03-08T03:49:43;4.50;1.00
38456;DHT22;24237;50.106;20.014;2024-03-08T03:52:09;4.40;1.00
38456;DHT22;24237;50.106;20.014;2024-03-08T03:54:35;4.30;1.00
38456;DHT22;24237;50.106;20.014;2024-03-08T03:57:01;4.30;1.00
38456;DHT22;24237;50.106;20.014;2024-03-08T03:59:28;4.20;1.00
38456;DHT22;24237;50.106;20.014;2024-03-08T04:01:54;4.20;1.00
38456;DHT22;24237;50.106;20.014;2024-03-08T04:04:20;4.20;1.00
38456;DHT22;24237;50.106;20.014;2024-03-08T04:06:46;4.50;1.00
38456;DHT22;24237;50.106;20.014;2024-03-08T04:09:12;4.40;1.00
38456;DHT22;24237;50.106;20.014;2024-03-08T04:11:38;4.30;1.00
38456;DHT22;24237;50.106;20.014;2024-03-08T04:14:04;4.40;1.00
38456;DHT22;24237;50.106;20.014;2024-03-08T04:16:31;4.40;1.00
38456;DHT22;24237;50.106;20.014;2024-03-08T04:18:59;4.20;1.00
38456;DHT22;24237;50.106;20.014;2024-03-08T04:21:25;4.50;1.00
38456;DHT22;24237;50.106;20.014;2024-03-08T04:23:51;4.30;1.00
38456;DHT22;24237;50.106;20.014;2024-03-08T04:26:17;4.40;7.20
38456;DHT22;24237;50.106;20.014;2024-03-08T04:28:43;4.50;36.50
38456;DHT22;24237;50.106;20.014;2024-03-08T04:31:09;4.50;1.00
38456;DHT22;24237;50.106;20.014;2024-03-08T04:33:35;4.40;1.00
38456;DHT22;24237;50.106;20.014;2024-03-08T04:36:01;4.10;55.30
38456;DHT22;24237;50.106;20.014;2024-03-08T04:38:29;4.10;33.00
38456;DHT22;24237;50.106;20.014;2024-03-08T04:40:56;4.10;76.90
38456;DHT22;24237;50.106;20.014;2024-03-08T04:43:22;4.00;99.90
38456;DHT22;24237;50.106;20.014;2024-03-08T04:45:51;4.20;99.90
38456;DHT22;24237;50.106;20.014;2024-03-08T04:48:16;4.10;99.90
38456;DHT22;24237;50.106;20.014;2024-03-08T04:50:42;4.20;94.20
38456;DHT22;24237;50.106;20.014;2024-03-08T04:53:08;4.10;99.90
38456;DHT22;24237;50.106;20.014;2024-03-08T04:55:34;4.00;99.90
38456;DHT22;24237;50.106;20.014;2024-03-08T04:58:00;4.10;99.90
38456;DHT22;24237;50.106;20.014;2024-03-08T05:00:25;4.10;99.90
38456;DHT22;24237;50.106;20.014;2024-03-08T05:02:51;4.30;99.90
38456;DHT22;24237;50.106;20.014;2024-03-08T05:05:18;4.30;99.90
38456;DHT22;24237;50.106;20.014;2024-03-08T05:07:44;4.30;81.90
38456;DHT22;24237;50.106;20.014;2024-03-08T05:10:11;4.20;95.00
38456;DHT22;24237;50.106;20.014;2024-03-08T05:12:37;3.60;1.00
38456;DHT22;24237;50.106;20.014;2024-03-08T05:15:05;3.70;99.90
38456;DHT22;24237;50.106;20.014;2024-03-08T05:17:30;4.00;99.90
38456;DHT22;24237;50.106;20.014;2024-03-08T05:19:56;4.10;99.90
38456;DHT22;24237;50.106;20.014;2024-03-08T05:22:22;4.00;99.90
38456;DHT22;24237;50.106;20.014;2024-03-08T05:24:48;3.90;1.00
38456;DHT22;24237;50.106;20.014;2024-03-08T05:27:13;3.70;48.40
38456;DHT22;24237;50.106;20.014;2024-03-08T05:29:39;3.80;7.80
38456;DHT22;24237;50.106;20.014;2024-03-08T05:32:05;3.70;56.70
38456;DHT22;24237;50.106;20.014;2024-03-08T05:34:30;3.70;99.90
38456;DHT22;24237;50.106;20.014;2024-03-08T05:36:56;3.90;1.00
38456;DHT22;24237;50.106;20.014;2024-03-08T05:39:23;3.70;1.00
38456;DHT22;24237;50.106;20.014;2024-03-08T05:41:49;4.10;1.00
38456;DHT22;24237;50.106;20.014;2024-03-08T05:44:16;3.40;99.90
38456;DHT22;24237;50.106;20.014;2024-03-08T05:46:44;3.50;1.00
38456;DHT22;24237;50.106;20.014;2024-03-08T05:49:11;3.80;99.90
38456;DHT22;24237;50.106;20.014;2024-03-08T05:51:38;3.90;99.90
38456;DHT22;24237;50.106;20.014;2024-03-08T05:54:06;3.90;1.00
38456;DHT22;24237;50.106;20.014;2024-03-08T05:56:32;4.00;1.00
38456;DHT22;24237;50.106;20.014;2024-03-08T05:58:58;4.00;1.00
38456;DHT22;24237;50.106;20.014;2024-03-08T06:01:27;3.90;1.00
38456;DHT22;24237;50.106;20.014;2024-03-08T06:03:55;3.80;1.00
38456;DHT22;24237;50.106;20.014;2024-03-08T06:06:21;4.10;1.00
38456;DHT22;24237;50.106;20.014;2024-03-08T06:08:48;4.20;1.00
38456;DHT22;24237;50.106;20.014;2024-03-08T06:11:17;4.30;99.90
38456;DHT22;24237;50.106;20.014;2024-03-08T06:13:47;4.30;99.90
38456;DHT22;24237;50.106;20.014;2024-03-08T06:16:12;4.10;99.90
38456;DHT22;24237;50.106;20.014;2024-03-08T06:18:38;3.90;99.90
38456;DHT22;24237;50.106;20.014;2024-03-08T06:21:05;3.80;99.90
38456;DHT22;24237;50.106;20.014;2024-03-08T06:23:32;3.80;1.00
38456;DHT22;24237;50.106;20.014;2024-03-08T06:25:58;4.10;1.00
38456;DHT22;24237;50.106;20.014;2024-03-08T06:28:23;4.30;99.90
38456;DHT22;24237;50.106;20.014;2024-03-08T06:30:49;4.40;99.90
38456;DHT22;24237;50.106;20.014;2024-03-08T06:33:16;4.40;99.90
38456;DHT22;24237;50.106;20.014;2024-03-08T06:35:42;4.10;99.90
38456;DHT22;24237;50.106;20.014;2024-03-08T06:38:08;3.90;1.00
38456;DHT22;24237;50.106;20.014;2024-03-08T06:40:33;4.10;1.00
38456;DHT22;24237;50.106;20.014;2024-03-08T06:42:59;4.30;1.00
38456;DHT22;24237;50.106;20.014;2024-03-08T06:45:24;4.20;99.90
38456;DHT22;24237;50.106;20.014;2024-03-08T06:47:51;4.20;99.90
38456;DHT22;24237;50.106;20.014;2024-03-08T06:50:16;4.40;99.90
38456;DHT22;24237;50.106;20.014;2024-03-08T06:52:42;4.60;37.80
38456;DHT22;24237;50.106;20.014;2024-03-08T06:55:09;4.50;36.00
38456;DHT22;24237;50.106;20.014;2024-03-08T06:57:39;4.50;99.90
38456;DHT22;24237;50.106;20.014;2024-03-08T07:00:07;4.20;99.90
38456;DHT22;24237;50.106;20.014;2024-03-08T07:02:35;4.20;99.90
38456;DHT22;24237;50.106;20.014;2024-03-08T07:05:01;4.00;99.90
38456;DHT22;24237;50.106;20.014;2024-03-08T07:07:27;4.10;99.90
38456;DHT22;24237;50.106;20.014;2024-03-08T07:09:52;4.20;99.90
38456;DHT22;24237;50.106;20.014;2024-03-08T07:12:18;4.30;99.90
38456;DHT22;24237;50.106;20.014;2024-03-08T07:14:46;4.50;58.70
38456;DHT22;24237;50.106;20.014;2024-03-08T07:17:12;4.20;70.50
38456;DHT22;24237;50.106;20.014;2024-03-08T07:19:38;4.20;29.70
38456;DHT22;24237;50.106;20.014;2024-03-08T07:22:04;4.30;1.00
38456;DHT22;24237;50.106;20.014;2024-03-08T07:24:34;4.20;1.00
38456;DHT22;24237;50.106;20.014;2024-03-08T07:27:36;4.10;1.00
38456;DHT22;24237;50.106;20.014;2024-03-08T07:30:02;4.20;99.90
38456;DHT22;24237;50.106;20.014;2024-03-08T07:32:28;4.30;14.90
38456;DHT22;24237;50.106;20.014;2024-03-08T07:34:56;4.40;1.00
38456;DHT22;24237;50.106;20.014;2024-03-08T07:37:21;4.50;1.00
38456;DHT22;24237;50.106;20.014;2024-03-08T07:39:47;4.40;1.00
38456;DHT22;24237;50.106;20.014;2024-03-08T07:42:13;4.30;1.00
38456;DHT22;24237;50.106;20.014;2024-03-08T07:44:38;4.50;1.00
38456;DHT22;24237;50.106;20.014;2024-03-08T07:47:04;4.20;1.00
38456;DHT22;24237;50.106;20.014;2024-03-08T07:49:30;4.30;1.00
38456;DHT22;24237;50.106;20.014;2024-03-08T07:51:58;4.80;1.00
38456;DHT22;24237;50.106;20.014;2024-03-08T07:54:24;4.60;1.00
38456;DHT22;24237;50.106;20.014;2024-03-08T07:56:51;5.00;99.90
38456;DHT22;24237;50.106;20.014;2024-03-08T07:59:18;5.10;99.90
38456;DHT22;24237;50.106;20.014;2024-03-08T08:01:44;5.10;99.90
38456;DHT22;24237;50.106;20.014;2024-03-08T08:04:10;5.40;99.90
38456;DHT22;24237;50.106;20.014;2024-03-08T08:06:38;5.20;99.90
38456;DHT22;24237;50.106;20.014;2024-03-08T08:09:07;5.00;99.90
38456;DHT22;24237;50.106;20.014;2024-03-08T08:11:40;5.30;99.90
38456;DHT22;24237;50.106;20.014;2024-03-08T08:14:06;5.30;99.90
38456;DHT22;24237;50.106;20.014;2024-03-08T08:16:37;5.60;46.20
38456;DHT22;24237;50.106;20.014;2024-03-08T08:19:03;5.40;32.80
38456;DHT22;24237;50.106;20.014;2024-03-08T08:21:36;5.20;81.70
38456;DHT22;24237;50.106;20.014;2024-03-08T08:24:04;5.40;15.80
38456;DHT22;24237;50.106;20.014;2024-03-08T08:26:30;5.30;2.10
38456;DHT22;24237;50.106;20.014;2024-03-08T08:28:56;5.10;61.40
38456;DHT22;24237;50.106;20.014;2024-03-08T08:31:21;5.40;55.70
38456;DHT22;24237;50.106;20.014;2024-03-08T08:33:47;5.50;1.00
38456;DHT22;24237;50.106;20.014;2024-03-08T08:36:15;5.70;1.00
38456;DHT22;24237;50.106;20.014;2024-03-08T08:38:41;5.60;1.00
38456;DHT22;24237;50.106;20.014;2024-03-08T08:41:10;6.00;1.00
38456;DHT22;24237;50.106;20.014;2024-03-08T08:43:36;5.80;1.00
38456;DHT22;24237;50.106;20.014;2024-03-08T08:46:02;5.90;1.00
38456;DHT22;24237;50.106;20.014;2024-03-08T08:48:28;6.00;1.00
38456;DHT22;24237;50.106;20.014;2024-03-08T08:50:56;5.80;1.00
38456;DHT22;24237;50.106;20.014;2024-03-08T08:53:21;5.30;1.00
38456;DHT22;24237;50.106;20.014;2024-03-08T08:55:47;5.00;1.00
38456;DHT22;24237;50.106;20.014;2024-03-08T08:58:13;5.00;1.00
38456;DHT22;24237;50.106;20.014;2024-03-08T09:00:39;5.20;1.00
38456;DHT22;24237;50.106;20.014;2024-03-08T09:03:05;5.50;1.00
38456;DHT22;24237;50.106;20.014;2024-03-08T09:05:34;5.30;1.00
38456;DHT22;24237;50.106;20.014;2024-03-08T09:08:00;5.60;1.00
38456;DHT22;24237;50.106;20.014;2024-03-08T09:10:26;5.70;1.00
38456;DHT22;24237;50.106;20.014;2024-03-08T09:12:53;6.30;1.00
38456;DHT22;24237;50.106;20.014;2024-03-08T09:15:18;6.90;1.00
38456;DHT22;24237;50.106;20.014;2024-03-08T09:17:46;6.80;99.90
38456;DHT22;24237;50.106;20.014;2024-03-08T09:20:12;6.30;99.90
38456;DHT22;24237;50.106;20.014;2024-03-08T09:22:41;6.40;99.90
38456;DHT22;24237;50.106;20.014;2024-03-08T09:25:09;6.00;99.90
38456;DHT22;24237;50.106;20.014;2024-03-08T09:27:35;5.80;99.90
38456;DHT22;24237;50.106;20.014;2024-03-08T09:30:01;5.70;99.90
38456;DHT22;24237;50.106;20.014;2024-03-08T09:32:26;6.10;99.90
38456;DHT22;24237;50.106;20.014;2024-03-08T09:34:52;5.90;99.90
38456;DHT22;24237;50.106;20.014;2024-03-08T09:37:18;5.70;99.90
38456;DHT22;24237;50.106;20.014;2024-03-08T09:39:44;5.80;99.90
38456;DHT22;24237;50.106;20.014;2024-03-08T09:42:10;5.40;99.90
38456;DHT22;24237;50.106;20.014;2024-03-08T09:44:46;5.20;99.90
38456;DHT22;24237;50.106;20.014;2024-03-08T09:47:14;5.00;1.00
38456;DHT22;24237;50.106;20.014;2024-03-08T09:49:41;5.50;1.00
38456;DHT22;24237;50.106;20.014;2024-03-08T09:52:07;6.10;99.90
38456;DHT22;24237;50.106;20.014;2024-03-08T09:54:33;6.20;99.90
38456;DHT22;24237;50.106;20.014;2024-03-08T09:57:04;6.00;99.90
38456;DHT22;24237;50.106;20.014;2024-03-08T09:59:30;6.20;99.90
38456;DHT22;24237;50.106;20.014;2024-03-08T10:02:01;6.00;99.90
38456;DHT22;24237;50.106;20.014;2024-03-08T10:04:28;6.00;99.90
38456;DHT22;24237;50.106;20.014;2024-03-08T10:07:00;5.80;99.90
38456;DHT22;24237;50.106;20.014;2024-03-08T10:09:26;6.10;99.90
38456;DHT22;24237;50.106;20.014;2024-03-08T10:11:59;6.30;99.90
38456;DHT22;24237;50.106;20.014;2024-03-08T10:14:25;6.90;99.90
38456;DHT22;24237;50.106;20.014;2024-03-08T10:16:54;7.40;99.90
38456;DHT22;24237;50.106;20.014;2024-03-08T10:19:25;7.80;99.90
38456;DHT22;24237;50.106;20.014;2024-03-08T10:21:51;8.10;99.90
38456;DHT22;24237;50.106;20.014;2024-03-08T10:24:23;7.80;99.90
38456;DHT22;24237;50.106;20.014;2024-03-08T10:26:58;7.80;99.90
38456;DHT22;24237;50.106;20.014;2024-03-08T10:29:24;7.60;33.90
38456;DHT22;24237;50.106;20.014;2024-03-08T10:31:49;7.30;1.00
38456;DHT22;24237;50.106;20.014;2024-03-08T10:34:15;7.20;1.00
38456;DHT22;24237;50.106;20.014;2024-03-08T10:36:41;7.00;9.10
38456;DHT22;24237;50.106;20.014;2024-03-08T10:39:21;7.20;36.80
38456;DHT22;24237;50.106;20.014;2024-03-08T10:41:56;7.40;1.00
38456;DHT22;24237;50.106;20.014;2024-03-08T10:49:31;8.60;1.00
38456;DHT22;24237;50.106;20.014;2024-03-08T10:52:03;8.40;1.00
38456;DHT22;24237;50.106;20.014;2024-03-08T10:54:31;8.20;1.00
38456;DHT22;24237;50.106;20.014;2024-03-08T10:56:57;8.10;1.00
38456;DHT22;24237;50.106;20.014;2024-03-08T10:59:25;8.10;1.00
38456;DHT22;24237;50.106;20.014;2024-03-08T11:01:52;7.40;1.00
38456;DHT22;24237;50.106;20.014;2024-03-08T11:04:18;7.30;17.30
38456;DHT22;24237;50.106;20.014;2024-03-08T11:06:50;7.20;51.30
38456;DHT22;24237;50.106;20.014;2024-03-08T11:09:28;7.30;25.00
38456;DHT22;24237;50.106;20.014;2024-03-08T11:12:23;7.20;88.50
38456;DHT22;24237;50.106;20.014;2024-03-08T11:14:59;7.20;90.40
38456;DHT22;24237;50.106;20.014;2024-03-08T11:19:58;8.20;23.20
38456;DHT22;24237;50.106;20.014;2024-03-08T11:22:32;7.70;28.60
38456;DHT22;24237;50.106;20.014;2024-03-08T11:25:01;7.00;99.90
38456;DHT22;24237;50.106;20.014;2024-03-08T11:27:31;6.80;99.90
38456;DHT22;24237;50.106;20.014;2024-03-08T11:30:05;6.70;99.90
38456;DHT22;24237;50.106;20.014;2024-03-08T11:32:45;7.00;94.60
38456;DHT22;24237;50.106;20.014;2024-03-08T11:35:21;7.40;99.90
38456;DHT22;24237;50.106;20.014;2024-03-08T11:37:50;8.00;99.90
38456;DHT22;24237;50.106;20.014;2024-03-08T11:40:16;8.40;1.00
38456;DHT22;24237;50.106;20.014;2024-03-08T11:42:46;7.90;26.20
38456;DHT22;24237;50.106;20.014;2024-03-08T11:45:17;8.00;34.00
38456;DHT22;24237;50.106;20.014;2024-03-08T11:47:44;8.10;57.50
38456;DHT22;24237;50.106;20.014;2024-03-08T11:50:15;8.30;58.40
38456;DHT22;24237;50.106;20.014;2024-03-08T11:52:41;8.10;35.60
38456;DHT22;24237;50.106;20.014;2024-03-08T11:55:08;8.00;11.60
38456;DHT22;24237;50.106;20.014;2024-03-08T11:57:34;8.30;26.30
38456;DHT22;24237;50.106;20.014;2024-03-08T12:00:00;8.80;25.40
38456;DHT22;24237;50.106;20.014;2024-03-08T12:02:32;9.30;31.80
38456;DHT22;24237;50.106;20.014;2024-03-08T12:05:01;10.00;1.00
38456;DHT22;24237;50.106;20.014;2024-03-08T12:07:31;10.00;99.90
38456;DHT22;24237;50.106;20.014;2024-03-08T12:10:18;9.70;99.90
38456;DHT22;24237;50.106;20.014;2024-03-08T12:13:02;9.90;99.90
38456;DHT22;24237;50.106;20.014;2024-03-08T12:15:29;10.20;99.90
38456;DHT22;24237;50.106;20.014;2024-03-08T12:17:55;11.20;99.90
38456;DHT22;24237;50.106;20.014;2024-03-08T12:20:23;12.00;72.40
38456;DHT22;24237;50.106;20.014;2024-03-08T12:22:50;12.00;1.00
38456;DHT22;24237;50.106;20.014;2024-03-08T12:25:18;12.00;1.00
38456;DHT22;24237;50.106;20.014;2024-03-08T12:27:44;11.40;1.00
38456;DHT22;24237;50.106;20.014;2024-03-08T12:33:01;12.50;1.00
38456;DHT22;24237;50.106;20.014;2024-03-08T12:35:28;12.50;99.90
38456;DHT22;24237;50.106;20.014;2024-03-08T12:37:58;13.30;99.90
38456;DHT22;24237;50.106;20.014;2024-03-08T12:40:31;13.50;99.90
38456;DHT22;24237;50.106;20.014;2024-03-08T12:42:58;13.20;99.90
38456;DHT22;24237;50.106;20.014;2024-03-08T12:45:24;12.70;99.90
38456;DHT22;24237;50.106;20.014;2024-03-08T12:47:51;12.40;99.90
38456;DHT22;24237;50.106;20.014;2024-03-08T12:50:19;13.40;99.90
38456;DHT22;24237;50.106;20.014;2024-03-08T12:52:44;14.40;99.90
38456;DHT22;24237;50.106;20.014;2024-03-08T12:55:10;14.20;99.90
38456;DHT22;24237;50.106;20.014;2024-03-08T12:57:36;14.50;99.90
38456;DHT22;24237;50.106;20.014;2024-03-08T13:00:03;14.20;99.90
38456;DHT22;24237;50.106;20.014;2024-03-08T13:02:30;13.90;99.90
38456;DHT22;24237;50.106;20.014;2024-03-08T13:04:59;13.90;99.90
38456;DHT22;24237;50.106;20.014;2024-03-08T13:07:25;14.20;99.90
38456;DHT22;24237;50.106;20.014;2024-03-08T13:09:54;14.60;99.90
38456;DHT22;24237;50.106;20.014;2024-03-08T13:12:23;15.00;97.90
38456;DHT22;24237;50.106;20.014;2024-03-08T13:14:49;15.30;85.10
38456;DHT22;24237;50.106;20.014;2024-03-08T13:17:16;15.30;90.10
38456;DHT22;24237;50.106;20.014;2024-03-08T13:19:44;15.50;64.20
38456;DHT22;24237;50.106;20.014;2024-03-08T13:22:10;15.90;63.10
38456;DHT22;24237;50.106;20.014;2024-03-08T13:24:44;15.80;26.50
38456;DHT22;24237;50.106;20.014;2024-03-08T13:27:11;14.80;16.50
38456;DHT22;24237;50.106;20.014;2024-03-08T13:29:48;14.70;12.60
38456;DHT22;24237;50.106;20.014;2024-03-08T13:32:17;15.50;16.10
38456;DHT22;24237;50.106;20.014;2024-03-08T13:34:46;16.30;19.50
38456;DHT22;24237;50.106;20.014;2024-03-08T13:37:13;15.10;20.60
38456;DHT22;24237;50.106;20.014;2024-03-08T13:39:42;14.50;28.70
38456;DHT22;24237;50.106;20.014;2024-03-08T13:42:11;14.80;13.80
38456;DHT22;24237;50.106;20.014;2024-03-08T13:44:39;14.90;1.00
38456;DHT22;24237;50.106;20.014;2024-03-08T13:47:05;15.30;1.00
38456;DHT22;24237;50.106;20.014;2024-03-08T13:49:32;15.90;3.40
38456;DHT22;24237;50.106;20.014;2024-03-08T13:51:58;15.30;1.00
38456;DHT22;24237;50.106;20.014;2024-03-08T13:54:24;14.50;1.00
38456;DHT22;24237;50.106;20.014;2024-03-08T13:56:50;15.10;4.90
38456;DHT22;24237;50.106;20.014;2024-03-08T13:59:20;14.70;1.00
38456;DHT22;24237;50.106;20.014;2024-03-08T14:01:48;14.10;1.00
38456;DHT22;24237;50.106;20.014;2024-03-08T14:04:14;14.50;1.00
38456;DHT22;24237;50.106;20.014;2024-03-08T14:06:42;14.40;1.00
38456;DHT22;24237;50.106;20.014;2024-03-08T14:09:11;14.20;1.00
38456;DHT22;24237;50.106;20.014;2024-03-08T14:11:45;14.10;1.00
38456;DHT22;24237;50.106;20.014;2024-03-08T14:14:11;14.00;1.00
38456;DHT22;24237;50.106;20.014;2024-03-08T14:16:39;14.80;1.00
38456;DHT22;24237;50.106;20.014;2024-03-08T14:19:05;15.40;1.00
38456;DHT22;24237;50.106;20.014;2024-03-08T14:21:34;15.00;1.00
38456;DHT22;24237;50.106;20.014;2024-03-08T14:23:59;14.80;1.00
38456;DHT22;24237;50.106;20.014;2024-03-08T14:26:26;14.00;1.00
38456;DHT22;24237;50.106;20.014;2024-03-08T14:28:51;14.00;1.00
38456;DHT22;24237;50.106;20.014;2024-03-08T14:31:20;14.80;1.00
38456;DHT22;24237;50.106;20.014;2024-03-08T14:33:45;15.20;1.00
38456;DHT22;24237;50.106;20.014;2024-03-08T14:36:15;14.90;1.00
38456;DHT22;24237;50.106;20.014;2024-03-08T14:38:45;14.10;1.00
38456;DHT22;24237;50.106;20.014;2024-03-08T14:41:13;13.60;1.00
38456;DHT22;24237;50.106;20.014;2024-03-08T14:43:42;14.00;1.00
38456;DHT22;24237;50.106;20.014;2024-03-08T14:46:28;14.40;1.00
38456;DHT22;24237;50.106;20.014;2024-03-08T14:48:53;14.40;1.00
38456;DHT22;24237;50.106;20.014;2024-03-08T14:51:20;14.00;1.00
38456;DHT22;24237;50.106;20.014;2024-03-08T14:53:48;14.30;1.00
38456;DHT22;24237;50.106;20.014;2024-03-08T14:56:15;13.90;1.00
38456;DHT22;24237;50.106;20.014;2024-03-08T14:58:45;13.80;1.00
38456;DHT22;24237;50.106;20.014;2024-03-08T15:01:23;13.60;1.00
38456;DHT22;24237;50.106;20.014;2024-03-08T15:03:53;13.60;1.00
38456;DHT22;24237;50.106;20.014;2024-03-08T15:06:20;13.20;1.00
38456;DHT22;24237;50.106;20.014;2024-03-08T15:08:47;13.30;1.00
38456;DHT22;24237;50.106;20.014;2024-03-08T15:11:13;13.50;1.00
38456;DHT22;24237;50.106;20.014;2024-03-08T15:13:53;13.60;1.00
38456;DHT22;24237;50.106;20.014;2024-03-08T15:16:19;13.50;1.00
38456;DHT22;24237;50.106;20.014;2024-03-08T15:18:46;13.70;1.00
38456;DHT22;24237;50.106;20.014;2024-03-08T15:21:13;14.00;1.00
38456;DHT22;24237;50.106;20.014;2024-03-08T15:23:44;14.00;1.00
38456;DHT22;24237;50.106;20.014;2024-03-08T15:26:15;13.80;1.00
38456;DHT22;24237;50.106;20.014;2024-03-08T15:28:42;14.20;1.00
38456;DHT22;24237;50.106;20.014;2024-03-08T15:31:07;14.10;1.00
38456;DHT22;24237;50.106;20.014;2024-03-08T15:33:33;13.70;1.00
38456;DHT22;24237;50.106;20.014;2024-03-08T15:36:00;13.70;1.00
38456;DHT22;24237;50.106;20.014;2024-03-08T15:38:35;13.60;1.00
38456;DHT22;24237;50.106;20.014;2024-03-08T15:41:02;13.30;1.00
38456;DHT22;24237;50.106;20.014;2024-03-08T15:43:33;12.90;1.00
38456;DHT22;24237;50.106;20.014;2024-03-08T15:46:03;12.60;1.00
38456;DHT22;24237;50.106;20.014;2024-03-08T15:48:31;12.60;1.00